Time;durP1;ratioP1;P1;durP2;ratioP2;P2;SDS_P1;SDS_P2;PMS_P1;PMS_P2;Temp;Humidity;BMP_temperature;BMP_pressure;BME280_temperature;BME280_humidity;BME280_pressure;Samples;Min_cycle;Max_cycle;Signal;HPM_P1;HPM_P2
2023/12/09 00:03:50;;;;;;;1.00;0.50;;;-1.60;99.90;;;;;;20914085;28;20106;-50
2023/12/09 00:13:52;;;;;;;0.80;0.43;;;-1.60;99.90;;;;;;20913160;28;20036;-56
2023/12/09 00:23:54;;;;;;;1.42;0.60;;;-1.70;99.90;;;;;;20971315;28;20068;-57
2023/12/09 00:33:59;;;;;;;0.80;0.52;;;-1.70;99.90;;;;;;20922987;28;20045;-47
2023/12/09 00:44:01;;;;;;;1.13;0.80;;;-1.70;99.90;;;;;;20911118;28;20032;-48
2023/12/09 00:54:02;;;;;;;1.05;0.50;;;-1.80;99.90;;;;;;20909879;28;20419;-57
2023/12/09 01:04:06;;;;;;;0.40;0.30;;;-1.80;99.90;;;;;;20914052;28;20033;-56
2023/12/09 01:14:10;;;;;;;0.55;0.30;;;-1.80;99.90;;;;;;20919943;28;20020;-53
2023/12/09 01:24:12;;;;;;;1.13;0.40;;;-1.90;99.90;;;;;;20991620;28;20086;-57
2023/12/09 01:34:15;;;;;;;0.82;0.40;;;-1.90;99.90;;;;;;20916232;28;20053;-56
2023/12/09 01:44:17;;;;;;;1.00;0.73;;;-1.80;99.90;;;;;;20950589;28;20048;-55
2023/12/09 01:54:18;;;;;;;0.70;0.40;;;-1.80;99.90;;;;;;20907665;28;20379;-48
2023/12/09 02:04:21;;;;;;;0.90;0.50;;;-1.80;99.90;;;;;;20911141;28;20032;-57
2023/12/09 02:14:29;;;;;;;0.75;0.50;;;-1.80;99.90;;;;;;20941890;28;20045;-51
2023/12/09 02:24:32;;;;;;;0.88;0.40;;;-1.80;99.90;;;;;;20985678;28;20117;-55
2023/12/09 02:34:40;;;;;;;0.60;0.40;;;-1.70;99.90;;;;;;20909479;28;20037;-56
2023/12/09 02:44:42;;;;;;;0.82;0.50;;;-1.70;99.90;;;;;;20920285;28;20029;-56
2023/12/09 02:54:44;;;;;;;1.67;0.43;;;-1.70;99.90;;;;;;20920242;28;20036;-51
2023/12/09 03:04:46;;;;;;;0.52;0.30;;;-1.70;99.90;;;;;;20922821;28;20044;-57
2023/12/09 03:14:48;;;;;;;1.63;0.60;;;-1.70;99.90;;;;;;20934240;28;20021;-56
2023/12/09 03:24:49;;;;;;;0.60;0.20;;;-1.70;99.90;;;;;;21000602;28;20066;-57
2023/12/09 03:34:51;;;;;;;0.75;0.40;;;-1.60;99.90;;;;;;20902074;28;20041;-50
2023/12/09 03:44:53;;;;;;;1.17;0.70;;;-1.60;99.90;;;;;;20913354;28;20048;-57
2023/12/09 03:54:55;;;;;;;1.35;0.30;;;-1.50;99.90;;;;;;20911794;28;20091;-54
2023/12/09 04:04:56;;;;;;;1.75;0.10;;;-1.40;99.90;;;;;;20911493;28;20036;-56
2023/12/09 04:14:58;;;;;;;0.55;0.15;;;-1.30;99.90;;;;;;20917838;28;20037;-56
2023/12/09 04:25:00;;;;;;;1.00;0.57;;;-1.20;99.90;;;;;;20969377;28;20402;-56
2023/12/09 04:35:01;;;;;;;0.60;0.30;;;-1.30;99.90;;;;;;20990893;28;20494;-54
2023/12/09 04:45:04;;;;;;;0.50;0.22;;;-1.20;99.90;;;;;;21013291;28;20046;-52
2023/12/09 04:55:09;;;;;;;0.73;0.30;;;-1.20;99.90;;;;;;21056433;28;20439;-49
2023/12/09 05:05:14;;;;;;;3.03;0.60;;;-1.00;99.90;;;;;;21069453;28;20035;-56
2023/12/09 05:15:16;;;;;;;0.43;0.10;;;-1.00;99.90;;;;;;21031942;28;20090;-56
2023/12/09 05:25:18;;;;;;;0.40;0.28;;;-0.90;99.90;;;;;;20989343;28;20090;-48
2023/12/09 05:35:20;;;;;;;0.38;0.25;;;-0.90;99.90;;;;;;20985050;28;20037;-52
2023/12/09 05:45:21;;;;;;;0.60;0.10;;;-1.00;99.90;;;;;;20988775;28;20154;-51
2023/12/09 05:55:23;;;;;;;1.83;1.00;;;-1.40;99.90;;;;;;20986983;28;20082;-48
2023/12/09 06:05:25;;;;;;;1.20;0.60;;;-1.90;99.90;;;;;;20984281;28;20032;-54
2023/12/09 06:15:27;;;;;;;0.85;0.30;;;-2.20;99.90;;;;;;20978389;28;20024;-54
2023/12/09 06:25:29;;;;;;;0.75;0.38;;;-2.40;99.90;;;;;;20985764;28;20082;-56
2023/12/09 06:35:30;;;;;;;1.40;0.20;;;-2.60;99.90;;;;;;20984278;28;20060;-46
2023/12/09 06:45:32;;;;;;;0.88;0.30;;;-2.80;99.90;;;;;;20967789;28;20033;-53
2023/12/09 06:55:34;;;;;;;0.80;0.50;;;-2.90;99.90;;;;;;20994738;28;20470;-56
2023/12/09 07:05:36;;;;;;;0.77;0.35;;;-2.90;99.90;;;;;;20999728;28;20029;-55
2023/12/09 07:15:38;;;;;;;0.50;0.22;;;-3.00;99.90;;;;;;20999024;28;20032;-52
2023/12/09 07:25:40;;;;;;;2.15;0.30;;;-2.80;99.90;;;;;;20991883;28;20110;-51
2023/12/09 07:35:42;;;;;;;1.80;0.30;;;-2.90;99.90;;;;;;20989655;28;20098;-48
2023/12/09 07:45:44;;;;;;;0.80;0.30;;;-2.70;99.90;;;;;;20994115;28;20412;-53
2023/12/09 07:55:46;;;;;;;1.20;0.30;;;-2.10;99.90;;;;;;20995250;28;20102;-50
2023/12/09 08:05:48;;;;;;;0.57;0.30;;;-1.20;99.90;;;;;;20994738;28;20032;-55
2023/12/09 08:15:50;;;;;;;1.75;0.68;;;-0.50;99.90;;;;;;20992681;28;20474;-54
2023/12/09 08:25:52;;;;;;;0.50;0.28;;;0.30;99.90;;;;;;20916659;28;20045;-49
2023/12/09 08:35:53;;;;;;;0.28;0.20;;;1.50;99.90;;;;;;20977106;28;20032;-52
2023/12/09 08:45:55;;;;;;;0.70;0.30;;;2.10;99.90;;;;;;20970233;28;20025;-53
2023/12/09 08:55:57;;;;;;;0.52;0.28;;;2.70;99.90;;;;;;20984691;28;20032;-52
2023/12/09 09:05:59;;;;;;;0.40;0.20;;;3.30;99.90;;;;;;20889113;28;20037;-53
2023/12/09 09:16:01;;;;;;;0.70;0.35;;;3.90;99.90;;;;;;20904673;28;20543;-53
2023/12/09 09:26:04;;;;;;;3.63;0.50;;;3.80;99.90;;;;;;20981539;28;20055;-53
2023/12/09 09:36:07;;;;;;;0.70;0.30;;;4.00;99.90;;;;;;20988850;28;20037;-54
2023/12/09 09:46:12;;;;;;;0.70;0.50;;;4.30;99.90;;;;;;20988220;28;20083;-53
2023/12/09 09:56:14;;;;;;;1.20;0.63;;;4.50;99.90;;;;;;20987255;28;20040;-51
2023/12/09 10:06:17;;;;;;;3.30;1.40;;;4.90;99.90;;;;;;20987838;28;20466;-50
2023/12/09 10:16:19;;;;;;;3.20;1.27;;;5.40;99.90;;;;;;20986708;28;20025;-51
2023/12/09 10:26:21;;;;;;;2.13;1.15;;;5.50;99.90;;;;;;20992506;28;20442;-49
2023/12/09 10:36:23;;;;;;;1.90;1.23;;;5.60;99.90;;;;;;21001913;28;20024;-52
2023/12/09 10:46:25;;;;;;;3.00;1.30;;;5.60;99.90;;;;;;20998554;28;20028;-47
2023/12/09 10:56:30;;;;;;;2.65;1.15;;;6.10;99.90;;;;;;20996619;28;20025;-48
2023/12/09 11:06:34;;;;;;;2.00;1.40;;;6.40;99.90;;;;;;20982044;28;20033;-48
2023/12/09 11:16:42;;;;;;;2.80;1.80;;;6.40;99.90;;;;;;20991410;28;20033;-47
2023/12/09 11:26:48;;;;;;;2.47;1.60;;;6.40;99.90;;;;;;20996249;28;20123;-52
2023/12/09 11:36:54;;;;;;;2.35;1.90;;;6.50;99.90;;;;;;20996727;28;20043;-49
2023/12/09 11:46:55;;;;;;;4.18;2.50;;;7.10;99.90;;;;;;20996379;28;20100;-54
2023/12/09 11:56:57;;;;;;;5.55;2.50;;;7.20;99.90;;;;;;20994847;28;20033;-47
2023/12/09 12:06:59;;;;;;;8.35;2.45;;;6.80;99.90;;;;;;20994963;28;20086;-48
2023/12/09 12:17:01;;;;;;;6.55;3.20;;;6.40;99.90;;;;;;20992981;28;20473;-49
2023/12/09 12:27:03;;;;;;;4.80;3.47;;;6.20;99.90;;;;;;20993699;28;20045;-48
2023/12/09 12:37:05;;;;;;;5.18;3.63;;;5.70;99.90;;;;;;20992438;28;20383;-52
2023/12/09 12:47:07;;;;;;;6.35;4.30;;;5.30;99.90;;;;;;20991054;28;20028;-49
2023/12/09 12:57:09;;;;;;;6.10;4.40;;;5.10;99.90;;;;;;20991450;28;20036;-51
2023/12/09 13:07:11;;;;;;;6.03;4.45;;;4.80;99.90;;;;;;20991052;28;20028;-54
2023/12/09 13:17:12;;;;;;;6.60;4.30;;;4.50;99.90;;;;;;20989333;28;20043;-48
2023/12/09 13:27:14;;;;;;;7.32;4.65;;;4.00;99.90;;;;;;20989850;28;20040;-52
2023/12/09 13:37:16;;;;;;;7.82;5.20;;;3.70;99.90;;;;;;20968235;28;20037;-53
2023/12/09 13:47:19;;;;;;;7.65;5.07;;;3.90;99.90;;;;;;20985525;28;20482;-54
2023/12/09 13:57:21;;;;;;;6.32;4.50;;;3.90;99.90;;;;;;20987742;28;20028;-53
2023/12/09 14:07:23;;;;;;;8.55;4.97;;;3.70;99.90;;;;;;21004673;28;20094;-49
2023/12/09 14:17:25;;;;;;;8.05;5.47;;;2.80;99.90;;;;;;20996631;28;20040;-53
2023/12/09 14:27:27;;;;;;;7.40;5.60;;;2.10;99.90;;;;;;20996716;28;20051;-51
2023/12/09 14:37:29;;;;;;;10.07;5.78;;;2.00;99.90;;;;;;21001850;28;20043;-54
2023/12/09 14:47:31;;;;;;;11.02;6.95;;;1.70;99.90;;;;;;21001227;28;20024;-53
2023/12/09 14:57:34;;;;;;;9.75;6.32;;;1.30;99.90;;;;;;20999761;28;20033;-51
2023/12/09 15:07:36;;;;;;;10.18;6.05;;;1.30;99.90;;;;;;20998790;28;20028;-53
2023/12/09 15:17:39;;;;;;;10.23;6.60;;;1.20;99.90;;;;;;20996390;28;20040;-52
2023/12/09 15:27:40;;;;;;;9.10;5.95;;;1.10;99.90;;;;;;20998132;28;20036;-51
2023/12/09 15:37:43;;;;;;;9.38;6.20;;;0.90;99.90;;;;;;20997748;28;20032;-52
2023/12/09 15:47:44;;;;;;;12.27;7.60;;;0.70;99.90;;;;;;20978727;28;20037;-51
2023/12/09 15:57:46;;;;;;;13.43;7.15;;;0.50;99.90;;;;;;20995574;28;20359;-55
2023/12/09 16:07:48;;;;;;;12.25;8.15;;;0.70;99.90;;;;;;20995973;28;20052;-51
2023/12/09 16:17:50;;;;;;;10.88;7.80;;;0.70;99.90;;;;;;20996678;28;20036;-48
2023/12/09 16:27:52;;;;;;;14.30;8.90;;;0.70;99.90;;;;;;21009930;28;20036;-46
2023/12/09 16:37:54;;;;;;;10.45;6.50;;;0.50;99.90;;;;;;21011720;28;20234;-53
2023/12/09 16:47:56;;;;;;;8.88;6.25;;;0.20;99.90;;;;;;20990426;28;20032;-52
2023/12/09 16:57:58;;;;;;;9.48;6.47;;;-0.30;99.90;;;;;;20993347;28;20028;-54
2023/12/09 17:08:00;;;;;;;6.55;4.10;;;-0.80;99.90;;;;;;20992755;28;20090;-48
2023/12/09 17:18:04;;;;;;;6.60;4.03;;;-1.00;99.90;;;;;;20991898;28;20050;-53
2023/12/09 17:28:06;;;;;;;4.63;3.20;;;-1.20;99.90;;;;;;20979352;28;20494;-52
2023/12/09 17:38:09;;;;;;;4.30;3.00;;;-1.30;99.90;;;;;;20990535;28;20033;-49
2023/12/09 17:48:11;;;;;;;3.35;2.17;;;-1.30;99.90;;;;;;20972782;28;20552;-49
2023/12/09 17:58:15;;;;;;;2.13;1.33;;;-1.30;99.90;;;;;;20990356;28;20033;-52
2023/12/09 18:08:21;;;;;;;2.38;1.40;;;-1.00;99.90;;;;;;20989921;28;20036;-52
2023/12/09 18:18:24;;;;;;;2.55;1.67;;;-0.90;99.90;;;;;;20989326;28;20098;-52
2023/12/09 18:28:30;;;;;;;2.65;1.17;;;-0.90;99.90;;;;;;21008209;28;20039;-53
2023/12/09 18:38:33;;;;;;;1.42;1.15;;;-1.00;99.90;;;;;;21018105;28;20055;-53
2023/12/09 18:48:35;;;;;;;1.75;1.10;;;-0.90;99.90;;;;;;20991834;28;20028;-51
2023/12/09 18:58:37;;;;;;;1.30;0.85;;;-0.80;99.90;;;;;;21002433;28;20037;-49
2023/12/09 19:08:42;;;;;;;1.20;0.70;;;-0.80;99.90;;;;;;21001865;28;20032;-49
2023/12/09 19:18:44;;;;;;;1.00;0.80;;;-0.70;99.90;;;;;;21000842;28;20559;-51
2023/12/09 19:28:46;;;;;;;2.00;1.27;;;-0.80;99.90;;;;;;21021794;28;20039;-49
2023/12/09 19:38:48;;;;;;;2.85;1.80;;;-1.00;99.90;;;;;;21083643;28;20032;-52
2023/12/09 19:48:50;;;;;;;1.30;0.70;;;-0.80;99.90;;;;;;21082558;28;20398;-48
2023/12/09 19:58:52;;;;;;;0.77;0.30;;;-0.50;99.90;;;;;;21042065;28;20063;-53
2023/12/09 20:08:54;;;;;;;1.65;0.40;;;0.40;99.90;;;;;;20997587;28;20033;-45
2023/12/09 20:18:55;;;;;;;2.03;1.08;;;1.10;99.90;;;;;;20996298;28;20094;-50
2023/12/09 20:28:58;;;;;;;2.05;1.10;;;1.10;99.90;;;;;;20992063;28;20398;-50
2023/12/09 20:39:01;;;;;;;0.52;0.20;;;0.70;99.90;;;;;;20995143;28;20086;-49
2023/12/09 20:49:03;;;;;;;0.10;0.00;;;1.10;99.90;;;;;;20994215;28;20036;-53
2023/12/09 20:59:08;;;;;;;4.28;1.08;;;1.90;99.90;;;;;;20992990;28;20134;-52
2023/12/09 21:09:10;;;;;;;0.55;0.20;;;2.60;99.90;;;;;;20992378;28;20033;-49
2023/12/09 21:19:12;;;;;;;3.90;1.95;;;2.70;99.90;;;;;;20991778;28;20051;-53
2023/12/09 21:29:16;;;;;;;0.80;0.50;;;2.70;99.90;;;;;;20987045;28;20502;-54
2023/12/09 21:39:19;;;;;;;5.05;3.38;;;2.70;99.90;;;;;;20991773;28;20041;-51
2023/12/09 21:49:22;;;;;;;4.75;3.47;;;1.00;99.90;;;;;;20971678;28;20058;-52
2023/12/09 21:59:24;;;;;;;9.02;5.63;;;0.20;99.90;;;;;;20989782;28;20036;-54
2023/12/09 22:09:29;;;;;;;13.25;7.53;;;0.00;99.90;;;;;;20990117;28;20033;-53
2023/12/09 22:19:31;;;;;;;9.35;5.85;;;0.00;99.90;;;;;;20990989;28;20494;-54
2023/12/09 22:29:36;;;;;;;3.88;2.17;;;0.10;99.90;;;;;;21033786;28;20358;-53
2023/12/09 22:39:39;;;;;;;1.20;0.70;;;0.40;99.90;;;;;;21024869;28;20028;-50
2023/12/09 22:49:40;;;;;;;456.13;23.15;;;0.60;99.90;;;;;;21003671;28;20028;-54
2023/12/09 22:59:45;;;;;;;49.20;7.45;;;0.70;99.90;;;;;;21003040;28;20063;-54
2023/12/09 23:09:47;;;;;;;12.65;5.55;;;0.50;99.90;;;;;;21002311;28;20036;-53
2023/12/09 23:19:49;;;;;;;16.90;5.28;;;0.60;99.90;;;;;;20983256;28;20083;-51
2023/12/09 23:29:50;;;;;;;5.18;3.35;;;0.50;99.90;;;;;;20997220;28;20040;-55
2023/12/09 23:39:52;;;;;;;187.25;13.90;;;0.50;99.90;;;;;;20999573;28;20043;-47
2023/12/09 23:49:54;;;;;;;3.95;2.63;;;0.70;99.90;;;;;;20980847;28;20040;-51
2023/12/09 23:59:56;;;;;;;2.42;1.42;;;0.70;99.90;;;;;;20980493;28;20047;-50
